This is the latest recevied weather packets stored in our database for station/object K3HM. If no packets are shown the sender has not sent any weather packets the latest 10 day(s).
| Time | Temp. | Humidity | Pressure | Rain* | Wind** | Luminosity | Snow |
|---|---|---|---|---|---|---|---|
| 1777838559 | 11.67° C | 44% | 1015.4 hPa | 0 mm | - | 598 W/m² | - |
| 1777838256 | 12.22° C | 42% | 1015.4 hPa | 0 mm | - | 622 W/m² | - |
| 1777837953 | 11.67° C | 44% | 1015.5 hPa | 0 mm | - | 641 W/m² | - |
| 1777837652 | 11.67° C | 43% | 1015.5 hPa | 0 mm | - | 224 W/m² | - |
| 1777837346 | 12.22° C | 39% | 1015.6 hPa | 0 mm | - | 652 W/m² | - |
| 1777837043 | 10.56° C | 45% | 1015.5 hPa | 0 mm | - | 662 W/m² | - |
| 1777836739 | 11.11° C | 45% | 1015.6 hPa | 0 mm | - | 189 W/m² | - |
| 1777836435 | 11.11° C | 43% | 1015.8 hPa | 0 mm | - | 169 W/m² | - |
| 1777836130 | 11.67° C | 43% | 1015.6 hPa | 0 mm | - | 475 W/m² | - |
| 1777835827 | 12.22° C | 44% | 1015.7 hPa | 0 mm | - | 703 W/m² | - |
| 1777835524 | 11.67° C | 44% | 1015.7 hPa | 0 mm | - | 760 W/m² | - |
| 1777835221 | 11.11° C | 44% | 1015.7 hPa | 0 mm | - | 698 W/m² | - |
| 1777834918 | 11.11° C | 43% | 1015.6 hPa | 0 mm | - | 740 W/m² | - |
| 1777834615 | 11.11° C | 44% | 1015.8 hPa | 0 mm | - | 752 W/m² | - |
| 1777834310 | 10.56° C | 44% | 1015.8 hPa | 0 mm | - | 750 W/m² | - |
| 1777834005 | 11.11° C | 43% | 1016 hPa | 0 mm | - | 723 W/m² | - |
| 1777833702 | 10.56° C | 45% | 1015.9 hPa | 0 mm | - | 780 W/m² | - |
| 1777833398 | 10° C | 48% | 1016 hPa | 0 mm | - | 763 W/m² | - |
| 1777833096 | 10.56° C | 46% | 1016 hPa | 0 mm | - | 254 W/m² | - |
| 1777832794 | 10.56° C | 44% | 1016.1 hPa | 0 mm | - | 222 W/m² | - |
| 1777832492 | 10° C | 46% | 1016.3 hPa | 0 mm | - | 272 W/m² | - |
| 1777832188 | 11.11° C | 44% | 1016 hPa | 0 mm | - | 532 W/m² | - |
| 1777831885 | 10.56° C | 44% | 1016.2 hPa | 0 mm | - | 799 W/m² | - |
| 1777831582 | 11.11° C | 46% | 1016 hPa | 0 mm | - | 833 W/m² | - |
| 1777831280 | 10° C | 47% | 1016.3 hPa | 0 mm | - | 818 W/m² | - |
* Rain latest hour (hover to see other rain measurements)
** Current wind speed in m/s (hover to see current wind gust speed)